Terminal Aerodrome Forecast
Issued by NWS

Home | Current Version | Previous Version | Graphics & Text | Print | Product List | Glossary On
Versions: 1 2 3 4 5 6 7 8 9 10 11 12 13 14 15 16 17 18 19 20 21 22 23 24 25 26 27 28 29 30 31 32 33
000
FTUS43 KGRB 231700
TAFRHI
TAF
KRHI 231728Z 2318/2418 23012G18KT P6SM BKN035 OVC050 WS016/25035KT
      TEMPO 2318/2319 2SM -SN BKN035 OVC045
     FM232000 25007KT P6SM SCT040 SCT090
     FM240100 29007KT P6SM OVC020
     FM240600 30007KT P6SM OVC012=

USA.gov is the U.S. government's official web portal to all federal, state and local government web resources and services.